Time;durP1;ratioP1;P1;durP2;ratioP2;P2;SDS_P1;SDS_P2;PMS_P1;PMS_P2;Temp;Humidity;BMP_temperature;BMP_pressure;BME280_temperature;BME280_humidity;BME280_pressure;Samples;Min_cycle;Max_cycle;Signal;HPM_P1;HPM_P2
2023/08/15 00:00:14;;;;;;;7.18;4.03;;;16.90;99.90;;;;;;4826946;29;20803;-62
2023/08/15 00:02:41;;;;;;;9.00;4.25;;;16.90;99.90;;;;;;4824721;29;20914;-68
2023/08/15 00:05:08;;;;;;;8.38;4.03;;;16.80;99.90;;;;;;4822435;29;20050;-65
2023/08/15 00:07:54;;;;;;;5.75;4.07;;;16.90;99.90;;;;;;4828485;29;20077;-70
2023/08/15 00:10:21;;;;;;;5.20;3.47;;;16.90;99.90;;;;;;4824715;29;20064;-66
2023/08/15 00:12:48;;;;;;;3.67;2.95;;;16.90;99.90;;;;;;4824409;29;20149;-63
2023/08/15 00:15:15;;;;;;;5.43;3.05;;;16.90;99.90;;;;;;4825217;29;20053;-68
2023/08/15 00:17:41;;;;;;;7.88;3.00;;;16.90;99.90;;;;;;4827782;29;20137;-64
2023/08/15 00:20:09;;;;;;;8.30;3.13;;;16.90;99.90;;;;;;4822009;29;20523;-66
2023/08/15 00:22:36;;;;;;;6.35;3.47;;;16.90;99.90;;;;;;4829143;29;20069;-67
2023/08/15 00:25:03;;;;;;;5.57;3.40;;;16.90;99.90;;;;;;4824068;29;20106;-65
2023/08/15 00:27:30;;;;;;;3.95;2.88;;;16.90;99.90;;;;;;4826787;29;20059;-63
2023/08/15 00:29:56;;;;;;;4.25;2.90;;;16.80;99.90;;;;;;4820391;29;20106;-69
2023/08/15 00:32:23;;;;;;;11.68;5.53;;;16.90;99.90;;;;;;4825825;29;20536;-68
2023/08/15 00:34:50;;;;;;;5.78;4.22;;;16.80;99.90;;;;;;4823952;29;20058;-65
2023/08/15 00:37:17;;;;;;;13.68;3.10;;;16.80;99.90;;;;;;4823328;29;20506;-63
2023/08/15 00:39:45;;;;;;;8.82;3.38;;;16.80;99.90;;;;;;4823230;29;20041;-65
2023/08/15 00:42:11;;;;;;;6.10;2.67;;;16.80;99.90;;;;;;4819147;29;20720;-67
2023/08/15 00:44:42;;;;;;;11.05;3.63;;;16.80;99.90;;;;;;4820976;29;20162;-69
2023/08/15 00:47:10;;;;;;;9.30;3.33;;;16.80;99.90;;;;;;4819741;29;20541;-69
2023/08/15 00:49:37;;;;;;;3.05;2.20;;;16.80;99.90;;;;;;4825909;29;20122;-64
2023/08/15 00:52:04;;;;;;;12.13;3.40;;;16.80;99.90;;;;;;4828390;29;20531;-69
2023/08/15 00:54:32;;;;;;;3.30;2.47;;;16.80;99.90;;;;;;4828131;29;20072;-68
2023/08/15 00:56:59;;;;;;;5.00;2.42;;;16.70;99.90;;;;;;4826107;29;20049;-67
2023/08/15 00:59:26;;;;;;;6.43;3.08;;;16.70;99.90;;;;;;4824220;29;20073;-66
2023/08/15 01:01:54;;;;;;;6.35;3.03;;;16.70;99.90;;;;;;4801678;29;20074;-65
2023/08/15 01:04:21;;;;;;;5.13;2.55;;;16.60;99.90;;;;;;4821274;29;20057;-72
2023/08/15 01:06:49;;;;;;;4.90;2.83;;;16.60;99.90;;;;;;4824754;29;20051;-68
2023/08/15 01:09:15;;;;;;;7.07;3.67;;;16.60;99.90;;;;;;4823374;29;20520;-70
2023/08/15 01:11:55;;;;;;;5.32;3.22;;;16.50;99.90;;;;;;4830568;29;20139;-65
2023/08/15 01:14:29;;;;;;;5.68;2.65;;;16.50;99.90;;;;;;4830385;29;20581;-64
2023/08/15 01:16:57;;;;;;;4.50;3.28;;;16.50;99.90;;;;;;4825292;29;20613;-66
2023/08/15 01:19:35;;;;;;;3.40;3.03;;;16.40;99.90;;;;;;4825378;29;20078;-61
2023/08/15 01:22:15;;;;;;;3.95;3.17;;;16.40;99.90;;;;;;4827902;29;20481;-66
2023/08/15 01:24:44;;;;;;;4.32;3.65;;;16.40;99.90;;;;;;4833133;29;20081;-68
2023/08/15 01:27:10;;;;;;;10.73;4.53;;;16.40;99.90;;;;;;4827531;29;20092;-70
2023/08/15 01:29:37;;;;;;;5.22;2.95;;;16.40;99.90;;;;;;4831814;29;20104;-67
2023/08/15 01:32:23;;;;;;;3.08;2.78;;;16.40;99.90;;;;;;4826083;29;20042;-63
2023/08/15 01:34:59;;;;;;;5.18;2.83;;;16.30;99.90;;;;;;4828987;29;20760;-62
2023/08/15 01:37:29;;;;;;;3.15;2.80;;;16.30;99.90;;;;;;4828687;29;20038;-64
2023/08/15 01:39:59;;;;;;;4.97;3.30;;;16.30;99.90;;;;;;4833405;29;20155;-64
2023/08/15 01:42:29;;;;;;;3.90;3.15;;;16.30;99.90;;;;;;4824616;29;20293;-69
2023/08/15 01:44:58;;;;;;;4.80;2.90;;;16.30;99.90;;;;;;4819671;29;20140;-68
2023/08/15 01:47:25;;;;;;;4.93;2.72;;;16.30;99.90;;;;;;4824516;29;20062;-67
2023/08/15 01:49:52;;;;;;;9.60;3.83;;;16.30;99.90;;;;;;4829362;29;20081;-69
2023/08/15 01:52:20;;;;;;;2.90;2.22;;;16.30;99.90;;;;;;4830052;29;20050;-66
2023/08/15 01:54:47;;;;;;;3.13;2.40;;;16.30;99.90;;;;;;4828244;29;20498;-65
2023/08/15 01:57:14;;;;;;;5.93;2.72;;;16.40;99.90;;;;;;4831044;29;20617;-69
2023/08/15 01:59:43;;;;;;;4.90;2.70;;;16.40;99.90;;;;;;4812772;29;20129;-64
2023/08/15 02:02:11;;;;;;;3.30;2.58;;;16.40;99.90;;;;;;4826049;29;20140;-70
2023/08/15 02:04:38;;;;;;;3.88;3.53;;;16.50;99.90;;;;;;4826771;29;20121;-72
2023/08/15 02:07:05;;;;;;;4.82;2.63;;;16.50;99.90;;;;;;4817737;29;20553;-65
2023/08/15 02:09:32;;;;;;;3.90;2.40;;;16.60;99.90;;;;;;4823940;29;20131;-66
2023/08/15 02:11:59;;;;;;;8.38;3.72;;;16.60;99.90;;;;;;4828607;29;20126;-64
2023/08/15 02:14:25;;;;;;;3.33;2.58;;;16.70;99.90;;;;;;4822630;29;20057;-67
2023/08/15 02:16:52;;;;;;;4.95;2.72;;;16.80;99.90;;;;;;4827715;29;20499;-69
2023/08/15 02:19:19;;;;;;;2.72;2.28;;;16.80;99.90;;;;;;4818481;29;20461;-71
2023/08/15 02:21:46;;;;;;;3.38;2.35;;;16.90;99.90;;;;;;4829058;29;20056;-69
2023/08/15 02:24:13;;;;;;;3.72;2.42;;;16.80;99.90;;;;;;4827965;29;20102;-63
2023/08/15 02:26:40;;;;;;;2.15;1.67;;;16.90;99.90;;;;;;4825369;29;20497;-71
2023/08/15 02:29:08;;;;;;;5.45;2.90;;;16.90;99.90;;;;;;4827313;29;20053;-65
2023/08/15 02:31:42;;;;;;;4.78;2.35;;;16.90;99.90;;;;;;4824710;29;20061;-65
2023/08/15 02:34:09;;;;;;;3.63;2.28;;;16.90;99.90;;;;;;4824064;29;22051;-69
2023/08/15 02:36:36;;;;;;;4.43;1.95;;;16.90;99.90;;;;;;4825811;29;20193;-68
2023/08/15 02:39:03;;;;;;;9.13;3.03;;;16.90;99.90;;;;;;4827390;29;20498;-70
2023/08/15 02:41:30;;;;;;;3.83;3.15;;;16.90;99.90;;;;;;4825331;29;20046;-63
2023/08/15 02:43:57;;;;;;;6.50;2.60;;;16.90;99.90;;;;;;4825165;29;20054;-69
2023/08/15 02:46:28;;;;;;;3.00;2.80;;;16.90;99.90;;;;;;4827535;29;20698;-66
2023/08/15 02:48:55;;;;;;;2.33;2.13;;;16.90;99.90;;;;;;4826068;29;20564;-67
2023/08/15 02:51:22;;;;;;;4.47;2.33;;;16.90;99.90;;;;;;4827953;29;20442;-68
2023/08/15 02:53:49;;;;;;;6.22;2.70;;;16.80;99.90;;;;;;4824855;29;20118;-67
2023/08/15 02:56:16;;;;;;;9.43;2.83;;;16.80;99.90;;;;;;4827614;29;20509;-69
2023/08/15 02:58:42;;;;;;;2.25;2.13;;;16.80;99.90;;;;;;4825067;29;20056;-64
2023/08/15 03:01:10;;;;;;;4.10;2.40;;;16.80;99.90;;;;;;4828242;29;20488;-71
2023/08/15 03:03:37;;;;;;;5.28;2.67;;;16.80;99.90;;;;;;4823565;29;20065;-68
2023/08/15 03:06:04;;;;;;;4.20;2.40;;;16.70;99.90;;;;;;4820526;29;20070;-67
2023/08/15 03:08:31;;;;;;;2.45;2.22;;;16.70;99.90;;;;;;4828561;29;20041;-66
2023/08/15 03:10:58;;;;;;;9.90;3.58;;;16.70;99.90;;;;;;4826690;29;20134;-64
2023/08/15 03:13:26;;;;;;;4.25;2.30;;;16.70;99.90;;;;;;4823240;29;20110;-65
2023/08/15 03:15:55;;;;;;;5.75;2.17;;;16.60;99.90;;;;;;4825430;29;20046;-67
2023/08/15 03:18:24;;;;;;;5.28;2.33;;;16.60;99.90;;;;;;4808713;29;20678;-65
2023/08/15 03:20:56;;;;;;;5.82;2.80;;;16.60;99.90;;;;;;4827745;29;20062;-71
2023/08/15 03:23:24;;;;;;;3.53;2.58;;;16.60;99.90;;;;;;4824464;29;20064;-65
2023/08/15 03:25:55;;;;;;;4.15;3.10;;;16.60;99.90;;;;;;4826099;29;20459;-62
2023/08/15 03:28:27;;;;;;;4.28;3.30;;;16.50;99.90;;;;;;4825017;29;20058;-69
2023/08/15 03:30:54;;;;;;;6.15;2.85;;;16.50;99.90;;;;;;4823542;29;20041;-65
2023/08/15 03:33:24;;;;;;;5.15;2.40;;;16.50;99.90;;;;;;4801294;29;20065;-68
2023/08/15 03:35:51;;;;;;;4.88;2.83;;;16.50;99.90;;;;;;4827298;29;20042;-64
2023/08/15 03:38:22;;;;;;;4.30;2.67;;;16.50;99.90;;;;;;4820888;29;20057;-69
2023/08/15 03:40:59;;;;;;;3.92;2.63;;;16.50;99.90;;;;;;4824212;29;20050;-68
2023/08/15 03:43:26;;;;;;;4.32;3.17;;;16.40;99.90;;;;;;4826676;29;20042;-69
2023/08/15 03:45:53;;;;;;;6.60;3.33;;;16.40;99.90;;;;;;4812360;29;20050;-67
2023/08/15 03:48:20;;;;;;;9.30;2.80;;;16.40;99.90;;;;;;4821300;29;20045;-65
2023/08/15 03:50:46;;;;;;;2.92;2.20;;;16.50;99.90;;;;;;4827621;29;20143;-68
2023/08/15 03:53:13;;;;;;;4.82;3.00;;;16.40;99.90;;;;;;4823610;29;21380;-64
2023/08/15 03:55:41;;;;;;;4.65;3.03;;;16.50;99.90;;;;;;4823391;29;20053;-65
2023/08/15 03:58:07;;;;;;;4.53;2.83;;;16.40;99.90;;;;;;4823712;29;20050;-68
2023/08/15 04:00:34;;;;;;;5.10;3.17;;;16.50;99.90;;;;;;4823083;29;20514;-63
2023/08/15 04:03:01;;;;;;;4.13;2.85;;;16.50;99.90;;;;;;4822746;29;20043;-63
2023/08/15 04:05:28;;;;;;;7.60;3.47;;;16.50;99.90;;;;;;4816566;29;20059;-66
2023/08/15 04:07:55;;;;;;;6.45;3.05;;;16.50;99.90;;;;;;4824915;29;20845;-69
2023/08/15 04:10:22;;;;;;;6.18;3.17;;;16.50;99.90;;;;;;4826924;29;20061;-67
2023/08/15 04:12:49;;;;;;;8.40;2.97;;;16.50;99.90;;;;;;4820684;29;20046;-66
2023/08/15 04:15:17;;;;;;;7.95;2.80;;;16.50;99.90;;;;;;4824697;29;20090;-65
2023/08/15 04:17:44;;;;;;;7.88;3.17;;;16.50;99.90;;;;;;4825667;29;20118;-64
2023/08/15 04:20:12;;;;;;;7.47;3.30;;;16.60;99.90;;;;;;4828862;29;20048;-62
2023/08/15 04:22:39;;;;;;;7.05;3.40;;;16.60;99.90;;;;;;4825739;29;20061;-65
2023/08/15 04:25:09;;;;;;;4.65;2.67;;;16.60;99.90;;;;;;4822463;29;20102;-68
2023/08/15 04:27:37;;;;;;;4.75;3.42;;;16.60;99.90;;;;;;4823554;29;20054;-69
2023/08/15 04:30:08;;;;;;;5.63;3.38;;;16.50;99.90;;;;;;4808141;29;20054;-65
2023/08/15 04:32:35;;;;;;;6.40;4.18;;;16.60;99.90;;;;;;4824356;29;20153;-68
2023/08/15 04:35:03;;;;;;;3.92;2.88;;;16.60;99.90;;;;;;4824469;29;20050;-65
2023/08/15 04:37:30;;;;;;;8.15;4.28;;;16.60;99.90;;;;;;4820721;29;20054;-68
2023/08/15 04:39:57;;;;;;;4.25;3.00;;;16.60;99.90;;;;;;4824762;29;20540;-69
2023/08/15 04:42:25;;;;;;;4.80;3.15;;;16.70;99.90;;;;;;4828099;29;20099;-66
2023/08/15 04:44:52;;;;;;;6.10;4.28;;;16.70;99.90;;;;;;4828006;29;20056;-67
2023/08/15 04:47:19;;;;;;;5.72;3.40;;;16.70;99.90;;;;;;4828071;29;20103;-63
2023/08/15 04:49:47;;;;;;;5.93;3.53;;;16.80;99.90;;;;;;4813226;29;20054;-68
2023/08/15 04:52:16;;;;;;;3.35;2.97;;;16.80;99.90;;;;;;4819613;29;20043;-63
2023/08/15 04:54:43;;;;;;;4.38;2.65;;;16.80;99.90;;;;;;4826698;29;20181;-67
2023/08/15 04:57:10;;;;;;;4.30;2.85;;;16.80;99.90;;;;;;4821715;29;20058;-70
2023/08/15 04:59:37;;;;;;;4.65;3.22;;;16.90;99.90;;;;;;4821806;29;20511;-62
2023/08/15 05:02:03;;;;;;;8.70;3.28;;;16.90;99.90;;;;;;4823621;29;20842;-69
2023/08/15 05:04:30;;;;;;;8.65;3.90;;;17.00;99.90;;;;;;4822425;29;20938;-66
2023/08/15 05:07:00;;;;;;;5.38;3.38;;;17.00;99.90;;;;;;4826735;29;20107;-64
2023/08/15 05:09:29;;;;;;;5.53;2.97;;;17.00;99.90;;;;;;4812729;29;20614;-67
2023/08/15 05:11:56;;;;;;;8.20;4.18;;;17.10;99.90;;;;;;4823534;29;20094;-66
2023/08/15 05:14:23;;;;;;;6.22;3.35;;;17.10;99.90;;;;;;4814054;29;20540;-65
2023/08/15 05:16:50;;;;;;;3.75;3.40;;;17.10;99.90;;;;;;4821055;29;20125;-69
2023/08/15 05:19:17;;;;;;;6.35;2.90;;;17.20;99.90;;;;;;4817504;29;20051;-67
2023/08/15 05:21:43;;;;;;;4.22;2.50;;;17.20;99.90;;;;;;4820285;29;20062;-67
2023/08/15 05:24:10;;;;;;;6.10;3.92;;;17.30;99.90;;;;;;4823834;29;20052;-65
2023/08/15 05:26:37;;;;;;;10.02;3.47;;;17.30;99.90;;;;;;4823714;29;20396;-66
2023/08/15 05:29:04;;;;;;;4.32;3.00;;;17.40;99.90;;;;;;4820954;29;20054;-66
2023/08/15 05:31:31;;;;;;;5.97;3.75;;;17.50;99.90;;;;;;4822388;29;20196;-66
2023/08/15 05:33:58;;;;;;;6.82;3.53;;;17.50;99.90;;;;;;4820774;29;20056;-70
2023/08/15 05:36:25;;;;;;;4.13;2.63;;;17.50;99.90;;;;;;4826507;29;20058;-64
2023/08/15 05:38:52;;;;;;;5.82;3.75;;;17.60;99.90;;;;;;4822316;29;20042;-74
2023/08/15 05:41:19;;;;;;;9.80;3.67;;;17.70;99.90;;;;;;4810862;29;20056;-68
2023/08/15 05:43:46;;;;;;;6.57;3.90;;;17.80;99.90;;;;;;4819389;29;20134;-68
2023/08/15 05:46:13;;;;;;;6.85;3.72;;;17.80;99.90;;;;;;4828019;29;20050;-67
2023/08/15 05:48:40;;;;;;;3.78;2.53;;;17.90;99.90;;;;;;4824474;29;20155;-69
2023/08/15 05:51:07;;;;;;;5.47;2.50;;;18.00;99.90;;;;;;4824320;29;20050;-67
2023/08/15 05:53:34;;;;;;;3.83;2.75;;;18.00;99.90;;;;;;4825538;29;20046;-68
2023/08/15 05:56:01;;;;;;;5.10;3.38;;;18.10;99.90;;;;;;4828885;29;20050;-74
2023/08/15 05:58:28;;;;;;;6.55;3.13;;;18.20;99.90;;;;;;4826456;29;20437;-64
2023/08/15 06:00:54;;;;;;;9.15;3.17;;;18.30;99.90;;;;;;4833005;29;20078;-75
2023/08/15 06:03:22;;;;;;;6.85;3.38;;;18.30;99.90;;;;;;4831543;29;20437;-66
2023/08/15 06:06:08;;;;;;;9.35;3.70;;;18.40;99.90;;;;;;4832513;29;20126;-65
2023/08/15 06:08:35;;;;;;;8.05;2.55;;;18.50;99.90;;;;;;4828844;29;20046;-69
2023/08/15 06:11:02;;;;;;;7.60;2.95;;;18.50;99.90;;;;;;4826823;29;20118;-63
2023/08/15 06:13:29;;;;;;;7.93;2.95;;;18.70;99.90;;;;;;4829436;29;20124;-64
2023/08/15 06:15:57;;;;;;;4.72;2.88;;;18.80;99.90;;;;;;4826401;29;20081;-68
2023/08/15 06:18:24;;;;;;;10.98;3.28;;;18.90;99.90;;;;;;4829207;29;20125;-68
2023/08/15 06:20:51;;;;;;;6.80;3.10;;;19.00;99.90;;;;;;4820049;29;20073;-62
2023/08/15 06:23:18;;;;;;;5.95;3.00;;;19.10;99.90;;;;;;4823050;29;20077;-65
2023/08/15 06:25:45;;;;;;;8.10;3.97;;;19.20;99.90;;;;;;4826329;29;20489;-69
2023/08/15 06:28:11;;;;;;;8.35;3.33;;;19.30;99.90;;;;;;4827360;29;20050;-64
2023/08/15 06:30:42;;;;;;;9.90;3.00;;;19.30;99.90;;;;;;4828942;29;20061;-65
2023/08/15 06:33:08;;;;;;;4.72;2.85;;;19.40;99.90;;;;;;4825164;29;20103;-66
2023/08/15 06:35:35;;;;;;;7.40;3.10;;;19.50;99.90;;;;;;4825512;29;20132;-64
2023/08/15 06:38:02;;;;;;;4.15;2.10;;;19.50;99.90;;;;;;4828040;29;20153;-70
2023/08/15 06:40:31;;;;;;;11.90;3.50;;;19.60;99.90;;;;;;4825747;29;20138;-62
2023/08/15 06:42:58;;;;;;;5.88;2.80;;;19.70;99.90;;;;;;4826046;29;20734;-62
2023/08/15 06:45:25;;;;;;;6.63;2.90;;;19.80;99.90;;;;;;4823213;29;20054;-66
2023/08/15 06:47:52;;;;;;;4.65;3.35;;;19.80;99.90;;;;;;4826837;29;20054;-66
2023/08/15 06:50:19;;;;;;;19.75;3.20;;;20.00;99.90;;;;;;4827860;29;20092;-62
2023/08/15 06:52:46;;;;;;;5.95;3.28;;;20.00;99.90;;;;;;4826210;29;20069;-69
2023/08/15 06:55:12;;;;;;;6.55;3.00;;;20.00;99.90;;;;;;4827150;29;20132;-65
2023/08/15 06:57:39;;;;;;;7.53;3.22;;;20.10;99.90;;;;;;4822877;29;20054;-68
2023/08/15 07:00:07;;;;;;;5.22;2.83;;;20.20;99.90;;;;;;4822963;29;20652;-67
2023/08/15 07:02:34;;;;;;;5.38;2.47;;;20.30;99.90;;;;;;4828049;29;20102;-67
2023/08/15 07:05:01;;;;;;;7.68;2.95;;;20.30;99.90;;;;;;4823268;29;20094;-74
2023/08/15 07:07:28;;;;;;;5.18;2.53;;;20.40;99.90;;;;;;4823682;29;20462;-71
2023/08/15 07:09:55;;;;;;;6.70;3.47;;;20.40;99.90;;;;;;4825396;29;20149;-66
2023/08/15 07:12:22;;;;;;;10.32;4.35;;;20.50;99.90;;;;;;4826552;29;20064;-68
2023/08/15 07:14:49;;;;;;;3.53;2.10;;;20.60;99.90;;;;;;4823448;29;20053;-73
2023/08/15 07:17:16;;;;;;;7.95;3.17;;;20.60;99.90;;;;;;4825912;29;20111;-64
2023/08/15 07:19:43;;;;;;;5.07;2.78;;;20.60;99.90;;;;;;4830218;29;20046;-64
2023/08/15 07:22:10;;;;;;;7.00;2.97;;;20.70;99.90;;;;;;4825477;29;20145;-64
2023/08/15 07:24:37;;;;;;;3.25;2.40;;;20.80;99.90;;;;;;4825623;29;20050;-69
2023/08/15 07:27:04;;;;;;;8.40;2.38;;;20.90;99.90;;;;;;4824716;29;20042;-61
2023/08/15 07:29:31;;;;;;;6.25;2.38;;;20.90;99.90;;;;;;4826638;29;20045;-65
2023/08/15 07:31:57;;;;;;;3.63;2.88;;;21.00;99.90;;;;;;4827107;29;20450;-70
2023/08/15 07:34:25;;;;;;;4.55;3.13;;;21.20;99.90;;;;;;4822482;29;20530;-69
2023/08/15 07:36:51;;;;;;;4.32;2.38;;;21.20;99.90;;;;;;4827258;29;20145;-72
2023/08/15 07:39:18;;;;;;;3.80;2.38;;;21.30;99.90;;;;;;4822711;29;20077;-63
2023/08/15 07:41:45;;;;;;;5.72;2.30;;;21.40;99.90;;;;;;4826077;29;20061;-65
2023/08/15 07:44:12;;;;;;;6.82;2.38;;;21.50;99.90;;;;;;4825349;29;20125;-68
2023/08/15 07:46:39;;;;;;;7.90;2.45;;;21.60;99.90;;;;;;4825780;29;20129;-65
2023/08/15 07:49:06;;;;;;;6.30;2.63;;;21.70;99.90;;;;;;4826893;29;20057;-66
2023/08/15 07:51:33;;;;;;;6.72;3.20;;;21.90;99.90;;;;;;4826370;29;20119;-70
2023/08/15 07:53:59;;;;;;;6.35;2.25;;;22.00;99.90;;;;;;4821420;29;20066;-67
2023/08/15 07:56:29;;;;;;;11.18;3.17;;;22.20;99.90;;;;;;4828891;29;20130;-64
2023/08/15 07:58:56;;;;;;;5.40;2.47;;;22.30;99.90;;;;;;4825901;29;20165;-70
2023/08/15 08:01:24;;;;;;;3.78;2.75;;;22.40;99.90;;;;;;4823598;29;20458;-62
2023/08/15 08:03:51;;;;;;;5.00;3.15;;;22.50;99.90;;;;;;4821437;29;20146;-67
2023/08/15 08:06:18;;;;;;;5.90;3.03;;;22.50;99.90;;;;;;4828678;29;20050;-66
2023/08/15 08:09:05;;;;;;;5.97;2.53;;;22.50;99.90;;;;;;4825219;29;20164;-63
2023/08/15 08:11:32;;;;;;;4.97;2.60;;;22.60;99.90;;;;;;4821268;29;20061;-68
2023/08/15 08:13:59;;;;;;;5.95;2.75;;;22.60;99.90;;;;;;4828969;29;20157;-67
2023/08/15 08:16:26;;;;;;;2.63;2.42;;;22.60;99.90;;;;;;4827157;29;22480;-67
2023/08/15 08:18:53;;;;;;;4.00;2.60;;;22.70;99.90;;;;;;4821631;29;20066;-72
2023/08/15 08:21:20;;;;;;;3.55;2.22;;;22.80;99.90;;;;;;4826306;29;20152;-69
2023/08/15 08:23:47;;;;;;;5.32;2.78;;;22.90;99.90;;;;;;4829981;29;20042;-64
2023/08/15 08:26:14;;;;;;;5.28;2.75;;;22.90;99.90;;;;;;4825476;29;20081;-69
2023/08/15 08:28:41;;;;;;;7.43;2.83;;;23.00;99.90;;;;;;4828686;29;20062;-68
2023/08/15 08:31:08;;;;;;;5.05;3.63;;;23.00;99.90;;;;;;4825910;29;20481;-69
2023/08/15 08:33:35;;;;;;;5.40;2.65;;;23.00;99.90;;;;;;4827444;29;20045;-69
2023/08/15 08:36:02;;;;;;;4.75;3.38;;;23.00;99.90;;;;;;4826702;29;20168;-64
2023/08/15 08:38:30;;;;;;;4.72;3.00;;;23.00;99.90;;;;;;4824657;29;20045;-65
2023/08/15 08:40:57;;;;;;;3.72;2.53;;;23.00;99.90;;;;;;4827369;29;20049;-72
2023/08/15 08:43:25;;;;;;;5.57;3.20;;;23.10;99.90;;;;;;4825525;29;20039;-70
2023/08/15 08:45:57;;;;;;;5.75;2.78;;;23.20;99.90;;;;;;4827098;29;20110;-70
2023/08/15 08:48:25;;;;;;;9.30;4.30;;;23.20;99.90;;;;;;4828233;29;20042;-66
2023/08/15 08:50:53;;;;;;;11.02;3.10;;;23.30;99.90;;;;;;4829731;29;20098;-70
2023/08/15 08:53:20;;;;;;;5.35;3.42;;;23.30;99.90;;;;;;4823579;29;20061;-65
2023/08/15 08:55:48;;;;;;;4.35;2.47;;;23.40;99.90;;;;;;4827217;29;20114;-71
2023/08/15 08:58:15;;;;;;;4.70;3.75;;;23.50;99.90;;;;;;4824740;29;20050;-67
2023/08/15 09:00:42;;;;;;;3.45;2.67;;;23.60;99.90;;;;;;4821343;29;20754;-67
2023/08/15 09:03:09;;;;;;;4.55;2.80;;;23.70;99.90;;;;;;4826617;29;20050;-72
2023/08/15 09:05:41;;;;;;;3.72;2.42;;;23.80;99.90;;;;;;4827183;29;20400;-65
2023/08/15 09:08:08;;;;;;;6.53;2.70;;;23.90;99.90;;;;;;4823359;29;20089;-65
2023/08/15 09:10:35;;;;;;;4.85;3.10;;;24.10;99.90;;;;;;4823237;29;20143;-66
2023/08/15 09:13:03;;;;;;;2.40;2.20;;;24.10;99.90;;;;;;4823287;29;20058;-65
2023/08/15 09:15:31;;;;;;;4.38;2.33;;;24.20;99.90;;;;;;4820114;29;20048;-69
2023/08/15 09:18:04;;;;;;;5.00;3.20;;;24.20;99.90;;;;;;4826251;29;20173;-68
2023/08/15 09:20:32;;;;;;;5.68;2.75;;;24.40;99.90;;;;;;4826368;29;20057;-63
2023/08/15 09:23:00;;;;;;;3.15;2.88;;;24.40;99.90;;;;;;4822305;29;20090;-62
2023/08/15 09:25:27;;;;;;;3.40;2.33;;;24.50;99.90;;;;;;4823815;29;20516;-64
2023/08/15 09:27:54;;;;;;;4.13;2.92;;;24.60;99.90;;;;;;4824114;29;20073;-67
2023/08/15 09:30:22;;;;;;;3.53;2.47;;;24.60;99.90;;;;;;4827311;29;20073;-68
2023/08/15 09:32:49;;;;;;;2.63;2.42;;;24.60;99.90;;;;;;4830457;29;20034;-67
2023/08/15 09:35:18;;;;;;;2.88;2.58;;;24.50;99.90;;;;;;4826529;29;20056;-67
2023/08/15 09:37:47;;;;;;;8.15;3.90;;;24.50;99.90;;;;;;4830961;29;20077;-72
2023/08/15 09:40:22;;;;;;;8.27;3.70;;;24.50;99.90;;;;;;4824395;29;20551;-70
2023/08/15 09:42:49;;;;;;;7.88;5.13;;;24.50;99.90;;;;;;4827343;29;20115;-64
2023/08/15 09:45:16;;;;;;;6.43;2.72;;;24.40;99.90;;;;;;4825399;29;20053;-69
2023/08/15 09:47:44;;;;;;;5.00;2.80;;;24.40;99.90;;;;;;4829005;29;20144;-66
2023/08/15 09:50:13;;;;;;;3.75;2.78;;;24.40;99.90;;;;;;4823011;29;20042;-67
2023/08/15 09:52:43;;;;;;;5.75;2.85;;;24.20;99.90;;;;;;4824475;29;20046;-66
2023/08/15 09:55:12;;;;;;;6.63;4.27;;;24.00;99.90;;;;;;4830422;29;20038;-70
2023/08/15 09:57:40;;;;;;;5.03;3.13;;;23.90;99.90;;;;;;4824337;29;20137;-65
2023/08/15 10:00:12;;;;;;;7.28;3.70;;;23.70;99.90;;;;;;4827637;29;20069;-69
2023/08/15 10:03:18;;;;;;;5.47;2.63;;;23.60;99.90;;;;;;4828426;29;20122;-64
2023/08/15 10:05:54;;;;;;;4.45;2.60;;;23.50;99.90;;;;;;4821427;29;20058;-64
2023/08/15 10:08:22;;;;;;;6.30;2.30;;;23.30;99.90;;;;;;4826297;29;20138;-65
2023/08/15 10:10:51;;;;;;;6.30;3.20;;;23.10;99.90;;;;;;4828716;29;20404;-64
2023/08/15 10:13:24;;;;;;;6.38;2.90;;;23.00;99.90;;;;;;4820413;29;20046;-64
2023/08/15 10:15:53;;;;;;;5.35;3.25;;;22.90;99.90;;;;;;4823841;29;20412;-67
2023/08/15 10:18:20;;;;;;;4.75;3.35;;;22.90;99.90;;;;;;4825916;29;20050;-67
2023/08/15 10:20:51;;;;;;;8.25;3.28;;;22.90;99.90;;;;;;4826220;29;20564;-62
2023/08/15 10:23:26;;;;;;;5.18;3.05;;;22.80;99.90;;;;;;4830517;29;20872;-70
2023/08/15 10:25:54;;;;;;;3.50;2.72;;;22.80;99.90;;;;;;4830379;29;20049;-70
2023/08/15 10:28:21;;;;;;;3.95;3.40;;;22.80;99.90;;;;;;4827572;29;20066;-64
2023/08/15 10:30:50;;;;;;;6.50;3.65;;;22.90;99.90;;;;;;4827207;29;20101;-63
2023/08/15 10:33:23;;;;;;;7.28;3.67;;;23.00;99.90;;;;;;4826035;29;20057;-63
2023/08/15 10:35:50;;;;;;;6.82;3.50;;;23.00;99.90;;;;;;4827945;29;20054;-67
2023/08/15 10:38:41;;;;;;;6.60;3.15;;;23.10;99.90;;;;;;4829831;29;20115;-65
2023/08/15 10:41:16;;;;;;;3.03;2.72;;;23.10;99.90;;;;;;4828302;29;20055;-71
2023/08/15 10:43:52;;;;;;;4.75;3.30;;;23.30;99.90;;;;;;4831517;29;20053;-68
2023/08/15 10:46:25;;;;;;;7.85;4.10;;;23.40;99.90;;;;;;4824357;29;20049;-64
2023/08/15 10:48:55;;;;;;;4.05;3.40;;;23.20;99.90;;;;;;4827971;29;20054;-67
2023/08/15 10:51:31;;;;;;;4.55;2.85;;;23.20;99.90;;;;;;4826187;29;20358;-65
2023/08/15 10:54:04;;;;;;;4.38;2.88;;;23.10;99.90;;;;;;4825965;29;20055;-72
2023/08/15 10:56:34;;;;;;;4.38;3.42;;;23.10;99.90;;;;;;4827942;29;20144;-62
2023/08/15 10:59:20;;;;;;;5.43;3.75;;;22.90;99.90;;;;;;4826589;29;20046;-65
2023/08/15 11:01:47;;;;;;;8.25;4.40;;;22.90;99.90;;;;;;4826136;29;20076;-65
2023/08/15 11:04:22;;;;;;;8.55;4.82;;;22.90;99.90;;;;;;4821732;29;20123;-65
2023/08/15 11:06:53;;;;;;;8.02;3.63;;;22.80;99.90;;;;;;4824459;29;20050;-62
2023/08/15 11:09:29;;;;;;;7.25;3.55;;;22.90;99.90;;;;;;4826294;29;20054;-61
2023/08/15 11:12:04;;;;;;;4.78;3.38;;;22.90;99.90;;;;;;4825016;29;20528;-68
2023/08/15 11:14:32;;;;;;;7.40;3.88;;;22.80;99.90;;;;;;4827298;29;20054;-66
2023/08/15 11:17:00;;;;;;;6.25;2.88;;;22.80;99.90;;;;;;4829997;29;20110;-65
2023/08/15 11:19:28;;;;;;;8.77;3.70;;;22.80;99.90;;;;;;4826578;29;20068;-64
2023/08/15 11:21:56;;;;;;;4.05;2.47;;;22.80;99.90;;;;;;4829370;29;20046;-66
2023/08/15 11:24:23;;;;;;;7.82;4.20;;;22.70;99.90;;;;;;4828852;29;20121;-69
2023/08/15 11:26:51;;;;;;;7.18;3.25;;;22.70;99.90;;;;;;4829874;29;20148;-64
2023/08/15 11:29:17;;;;;;;4.28;2.97;;;22.70;99.90;;;;;;4821512;29;20118;-64
2023/08/15 11:31:44;;;;;;;5.53;3.17;;;22.80;99.90;;;;;;4826039;29;20121;-64
2023/08/15 11:34:14;;;;;;;5.18;2.70;;;22.80;99.90;;;;;;4828370;29;20524;-64
2023/08/15 11:36:41;;;;;;;7.30;3.92;;;22.90;99.90;;;;;;4824041;29;20103;-63
2023/08/15 11:39:12;;;;;;;6.20;3.30;;;22.90;99.90;;;;;;4824724;29;20050;-65
2023/08/15 11:41:40;;;;;;;10.27;3.65;;;23.00;99.90;;;;;;4825780;29;20049;-62
2023/08/15 11:44:07;;;;;;;6.68;3.17;;;23.10;99.90;;;;;;4822501;29;20074;-63
2023/08/15 11:46:37;;;;;;;5.18;3.35;;;23.30;99.90;;;;;;4825518;29;20454;-62
2023/08/15 11:49:22;;;;;;;5.38;2.60;;;23.50;99.90;;;;;;4822626;29;20134;-64
2023/08/15 11:51:51;;;;;;;5.43;2.63;;;23.80;99.90;;;;;;4821775;29;20440;-63
2023/08/15 11:54:18;;;;;;;7.50;4.47;;;24.00;99.90;;;;;;4827328;29;21034;-67
2023/08/15 11:56:52;;;;;;;8.07;3.30;;;24.00;99.90;;;;;;4828827;29;20049;-65
2023/08/15 11:59:19;;;;;;;6.15;3.58;;;24.20;99.90;;;;;;4824361;29;20494;-68
2023/08/15 12:01:48;;;;;;;5.00;3.00;;;24.30;99.90;;;;;;4826189;29;20072;-67
2023/08/15 12:04:16;;;;;;;5.10;2.40;;;24.40;99.90;;;;;;4827948;29;20216;-66
2023/08/15 12:06:43;;;;;;;7.80;3.92;;;24.50;99.90;;;;;;4827365;29;20113;-68
2023/08/15 12:09:11;;;;;;;4.32;2.75;;;24.60;99.90;;;;;;4829294;29;20571;-67
2023/08/15 12:11:38;;;;;;;3.55;3.25;;;24.70;99.90;;;;;;4823545;29;20089;-63
2023/08/15 12:14:05;;;;;;;9.15;3.13;;;24.80;99.90;;;;;;4823399;29;20133;-63
2023/08/15 12:16:32;;;;;;;6.20;3.17;;;24.80;99.90;;;;;;4822738;29;20058;-69
2023/08/15 12:18:59;;;;;;;7.65;3.65;;;24.80;99.90;;;;;;4826640;29;20134;-64
2023/08/15 12:21:26;;;;;;;3.47;3.10;;;24.80;99.90;;;;;;4826464;29;20504;-63
2023/08/15 12:23:53;;;;;;;5.45;3.78;;;24.70;99.90;;;;;;4821746;29;20054;-67
2023/08/15 12:26:20;;;;;;;5.22;2.47;;;24.60;99.90;;;;;;4824671;29;20521;-66
2023/08/15 12:28:46;;;;;;;4.97;2.72;;;24.60;99.90;;;;;;4821364;29;20042;-65
2023/08/15 12:31:13;;;;;;;6.50;4.07;;;24.50;99.90;;;;;;4826826;29;20102;-63
2023/08/15 12:33:40;;;;;;;7.78;3.97;;;24.40;99.90;;;;;;4819437;29;20612;-64
2023/08/15 12:36:14;;;;;;;7.90;3.05;;;24.20;99.90;;;;;;4825060;29;20122;-64
2023/08/15 12:38:42;;;;;;;7.13;3.72;;;24.20;99.90;;;;;;4824509;29;20805;-66
2023/08/15 12:41:09;;;;;;;6.10;3.15;;;24.10;99.90;;;;;;4823745;29;20046;-67
2023/08/15 12:43:36;;;;;;;7.05;3.40;;;24.00;99.90;;;;;;4822349;29;20061;-66
2023/08/15 12:46:03;;;;;;;4.53;3.35;;;23.90;99.90;;;;;;4826450;29;20054;-63
2023/08/15 12:48:31;;;;;;;6.22;3.17;;;23.90;99.90;;;;;;4824750;29;20038;-65
2023/08/15 12:50:59;;;;;;;4.28;2.75;;;23.90;99.90;;;;;;4824066;29;20417;-69